Time;durP1;ratioP1;P1;durP2;ratioP2;P2;SDS_P1;SDS_P2;PMS_P1;PMS_P2;Temp;Humidity;BMP_temperature;BMP_pressure;BME280_temperature;BME280_humidity;BME280_pressure;Samples;Min_cycle;Max_cycle;Signal;HPM_P1;HPM_P2
2021/09/04 00:02:43;;;;;;;5.90;4.10;;;;;;;;;;4939646;29;20199;-72
2021/09/04 00:05:47;;;;;;;6.60;5.17;;;;;;;;;;4956020;28;20199;-73
2021/09/04 00:08:51;;;;;;;7.23;4.50;;;;;;;;;;4958470;29;20179;-73
2021/09/04 00:11:56;;;;;;;8.63;4.60;;;;;;;;;;4940107;29;20223;-72
2021/09/04 00:15:03;;;;;;;5.40;4.27;;;;;;;;;;4939843;29;20514;-73
2021/09/04 00:18:07;;;;;;;5.50;4.47;;;;;;;;;;4958549;29;20191;-73
2021/09/04 00:21:11;;;;;;;7.17;4.87;;;;;;;;;;4950471;29;20699;-73
2021/09/04 00:24:15;;;;;;;5.70;4.30;;;;;;;;;;4955139;29;20647;-73
2021/09/04 00:27:19;;;;;;;7.53;5.10;;;;;;;;;;4939749;29;20188;-73
2021/09/04 00:30:23;;;;;;;6.07;4.73;;;;;;;;;;4943596;29;20207;-73
2021/09/04 00:33:28;;;;;;;6.70;5.23;;;;;;;;;;4944919;29;20215;-73
2021/09/04 00:36:32;;;;;;;7.03;5.37;;;;;;;;;;4958219;29;20184;-73
2021/09/04 00:39:36;;;;;;;8.47;5.60;;;;;;;;;;4958438;29;20187;-73
2021/09/04 00:42:40;;;;;;;7.30;5.60;;;;;;;;;;4942002;29;20215;-73
2021/09/04 00:45:44;;;;;;;6.80;5.83;;;;;;;;;;4956070;29;21742;-73
2021/09/04 00:48:48;;;;;;;9.77;6.37;;;;;;;;;;4938615;29;20180;-72
2021/09/04 00:51:52;;;;;;;7.53;5.60;;;;;;;;;;4952609;29;20222;-73
2021/09/04 00:54:57;;;;;;;9.43;5.40;;;;;;;;;;4954164;29;20184;-73
2021/09/04 00:58:01;;;;;;;8.70;5.70;;;;;;;;;;4939224;29;20176;-73
2021/09/04 01:01:05;;;;;;;8.80;5.77;;;;;;;;;;4945738;29;20223;-73
2021/09/04 01:04:10;;;;;;;7.43;5.73;;;;;;;;;;4968558;28;20538;-72
2021/09/04 01:07:17;;;;;;;8.37;6.20;;;;;;;;;;4942606;29;20533;-73
2021/09/04 01:10:26;;;;;;;8.00;6.37;;;;;;;;;;4944966;29;20191;-73
2021/09/04 01:13:30;;;;;;;8.70;6.07;;;;;;;;;;4958017;28;20215;-72
2021/09/04 01:16:40;;;;;;;6.53;5.07;;;;;;;;;;4958159;29;20175;-73
2021/09/04 01:19:45;;;;;;;6.47;5.23;;;;;;;;;;4948039;28;20204;-73
2021/09/04 01:22:49;;;;;;;8.30;5.80;;;;;;;;;;4938510;29;20207;-73
2021/09/04 01:25:54;;;;;;;7.10;5.63;;;;;;;;;;4949624;29;20548;-73
2021/09/04 01:28:59;;;;;;;7.03;5.43;;;;;;;;;;4938647;29;20200;-72
2021/09/04 01:32:04;;;;;;;6.90;5.60;;;;;;;;;;4945164;29;20223;-73
2021/09/04 01:35:10;;;;;;;7.83;5.70;;;;;;;;;;4938231;29;20200;-73
2021/09/04 01:38:14;;;;;;;7.00;5.60;;;;;;;;;;4938508;29;20639;-73
2021/09/04 01:41:18;;;;;;;8.60;5.57;;;;;;;;;;4949740;28;20224;-73
2021/09/04 01:44:22;;;;;;;8.20;5.97;;;;;;;;;;4946113;29;20203;-73
2021/09/04 01:47:27;;;;;;;7.50;5.77;;;;;;;;;;4957206;29;20199;-73
2021/09/04 01:50:31;;;;;;;9.20;5.83;;;;;;;;;;4956427;29;20195;-73
2021/09/04 01:53:35;;;;;;;7.17;5.97;;;;;;;;;;4954654;29;20215;-73
2021/09/04 01:56:39;;;;;;;9.87;6.10;;;;;;;;;;4937892;29;20528;-73
2021/09/04 01:59:45;;;;;;;7.67;6.03;;;;;;;;;;4938447;29;20180;-73
2021/09/04 02:02:49;;;;;;;11.53;5.90;;;;;;;;;;4937920;29;20181;-73
2021/09/04 02:05:52;;;;;;;16.80;6.03;;;;;;;;;;4938008;29;20513;-73
2021/09/04 02:08:56;;;;;;;11.27;6.27;;;;;;;;;;4937685;29;20188;-73
2021/09/04 02:12:01;;;;;;;8.17;5.63;;;;;;;;;;4948292;29;20710;-73
2021/09/04 02:15:08;;;;;;;9.37;6.17;;;;;;;;;;4937937;29;20220;-72
2021/09/04 02:18:12;;;;;;;8.57;5.97;;;;;;;;;;4936893;29;20192;-73
2021/09/04 02:21:16;;;;;;;8.97;6.23;;;;;;;;;;4950120;29;20227;-73
2021/09/04 02:24:20;;;;;;;7.40;4.77;;;;;;;;;;4937194;29;20184;-73
2021/09/04 02:27:24;;;;;;;6.73;4.93;;;;;;;;;;4944327;29;20517;-73
2021/09/04 02:30:29;;;;;;;6.63;5.20;;;;;;;;;;4955508;29;20204;-73
2021/09/04 02:33:34;;;;;;;7.53;5.50;;;;;;;;;;4955972;29;20219;-73
2021/09/04 02:36:39;;;;;;;6.80;5.13;;;;;;;;;;4958990;28;20200;-73
2021/09/04 02:39:44;;;;;;;7.47;4.60;;;;;;;;;;4954951;29;20183;-73
2021/09/04 02:42:50;;;;;;;7.57;5.20;;;;;;;;;;4966761;28;20175;-72
2021/09/04 02:45:54;;;;;;;5.47;4.23;;;;;;;;;;4937562;29;20176;-73
2021/09/04 02:48:58;;;;;;;5.80;4.50;;;;;;;;;;4940295;29;20203;-73
2021/09/04 02:52:03;;;;;;;5.97;4.80;;;;;;;;;;4955122;29;20219;-73
2021/09/04 02:55:07;;;;;;;7.30;4.60;;;;;;;;;;4956410;29;20199;-73
2021/09/04 02:58:11;;;;;;;5.97;4.10;;;;;;;;;;4947637;29;20529;-73
2021/09/04 03:01:17;;;;;;;6.03;4.33;;;;;;;;;;4952054;29;20235;-73
2021/09/04 03:04:21;;;;;;;7.87;4.90;;;;;;;;;;4947838;29;20224;-73
2021/09/04 03:07:27;;;;;;;6.63;4.77;;;;;;;;;;4936914;29;20184;-73
2021/09/04 03:10:31;;;;;;;6.07;4.60;;;;;;;;;;4937121;29;20188;-73
2021/09/04 03:13:38;;;;;;;5.90;4.90;;;;;;;;;;4936805;29;20638;-73
2021/09/04 03:16:43;;;;;;;7.03;5.27;;;;;;;;;;4948521;29;20207;-73
2021/09/04 03:19:47;;;;;;;6.37;4.80;;;;;;;;;;4968174;28;20655;-73
2021/09/04 03:22:51;;;;;;;6.23;4.73;;;;;;;;;;4950467;29;20196;-73
2021/09/04 03:25:55;;;;;;;5.20;4.63;;;;;;;;;;4954675;29;20196;-73
2021/09/04 03:28:59;;;;;;;6.30;4.10;;;;;;;;;;4955759;29;20187;-73
2021/09/04 03:32:05;;;;;;;4.90;4.30;;;;;;;;;;4936344;29;20219;-73
2021/09/04 03:35:09;;;;;;;6.27;4.60;;;;;;;;;;4935871;29;20208;-73
2021/09/04 03:38:14;;;;;;;7.03;4.30;;;;;;;;;;4936495;29;20184;-73
2021/09/04 03:41:17;;;;;;;7.33;4.43;;;;;;;;;;4957705;28;20224;-73
2021/09/04 03:44:22;;;;;;;6.80;4.47;;;;;;;;;;4950972;29;20682;-73
2021/09/04 03:47:27;;;;;;;7.77;4.57;;;;;;;;;;4962585;28;20191;-73
2021/09/04 03:50:31;;;;;;;7.67;5.30;;;;;;;;;;4936502;29;20200;-73
2021/09/04 03:53:36;;;;;;;8.60;5.10;;;;;;;;;;4936092;29;20185;-73
2021/09/04 03:56:40;;;;;;;5.50;4.47;;;;;;;;;;4952415;29;20192;-73
2021/09/04 03:59:45;;;;;;;10.03;4.77;;;;;;;;;;4936027;29;20180;-73
2021/09/04 04:02:49;;;;;;;6.07;4.47;;;;;;;;;;4957647;28;20550;-73
2021/09/04 04:05:53;;;;;;;7.90;5.20;;;;;;;;;;4944307;29;20519;-73
2021/09/04 04:08:57;;;;;;;7.20;5.07;;;;;;;;;;4955113;29;20520;-73
2021/09/04 04:12:02;;;;;;;10.80;5.30;;;;;;;;;;4954976;29;20215;-72
2021/09/04 04:15:08;;;;;;;7.00;5.27;;;;;;;;;;4959916;28;20184;-72
2021/09/04 04:18:14;;;;;;;6.57;4.60;;;;;;;;;;4946010;29;20200;-73
2021/09/04 04:21:19;;;;;;;9.23;5.17;;;;;;;;;;4935919;29;20231;-73
2021/09/04 04:24:23;;;;;;;6.40;5.00;;;;;;;;;;4950164;29;20211;-72
2021/09/04 04:27:28;;;;;;;5.97;4.53;;;;;;;;;;4936147;29;20191;-72
2021/09/04 04:30:35;;;;;;;7.83;4.80;;;;;;;;;;4935704;29;20188;-72
2021/09/04 04:33:39;;;;;;;10.53;5.33;;;;;;;;;;4935848;29;20188;-73
2021/09/04 04:36:44;;;;;;;10.50;5.30;;;;;;;;;;4953938;29;20563;-72
2021/09/04 04:39:49;;;;;;;8.30;4.87;;;;;;;;;;4955047;29;20199;-72
2021/09/04 04:42:54;;;;;;;8.30;4.97;;;;;;;;;;4954354;29;20195;-72
2021/09/04 04:45:58;;;;;;;7.23;4.90;;;;;;;;;;4941141;29;20188;-73
2021/09/04 04:49:02;;;;;;;7.37;4.90;;;;;;;;;;4938898;29;20204;-72
2021/09/04 04:52:07;;;;;;;7.93;5.20;;;;;;;;;;4947710;29;20219;-73
2021/09/04 04:55:11;;;;;;;7.70;5.23;;;;;;;;;;4938669;29;20647;-73
2021/09/04 04:58:15;;;;;;;7.60;4.73;;;;;;;;;;4951469;29;20199;-73
2021/09/04 05:01:20;;;;;;;7.50;5.23;;;;;;;;;;4979387;28;20227;-72
2021/09/04 05:04:24;;;;;;;6.73;5.20;;;;;;;;;;4971842;28;20224;-73
2021/09/04 05:07:29;;;;;;;9.90;5.13;;;;;;;;;;4958345;29;20187;-73
2021/09/04 05:10:34;;;;;;;9.70;5.13;;;;;;;;;;4979334;28;20196;-73
2021/09/04 05:13:38;;;;;;;5.93;4.77;;;;;;;;;;4941439;29;20200;-72
2021/09/04 05:16:42;;;;;;;7.70;5.30;;;;;;;;;;4956799;29;20191;-73
2021/09/04 05:19:47;;;;;;;9.73;5.00;;;;;;;;;;4958267;29;20203;-73
2021/09/04 05:22:52;;;;;;;11.67;5.27;;;;;;;;;;4955298;29;20184;-72
2021/09/04 05:25:56;;;;;;;8.67;5.23;;;;;;;;;;4949583;29;20219;-73
2021/09/04 05:29:00;;;;;;;8.37;4.90;;;;;;;;;;4960462;28;20215;-73
2021/09/04 05:32:05;;;;;;;9.37;5.83;;;;;;;;;;4938485;29;20220;-73
2021/09/04 05:35:09;;;;;;;7.20;5.80;;;;;;;;;;4941381;29;20212;-73
2021/09/04 05:38:13;;;;;;;10.90;5.97;;;;;;;;;;4950007;29;20196;-73
2021/09/04 05:41:17;;;;;;;9.53;6.10;;;;;;;;;;4938263;29;20220;-72
2021/09/04 05:44:21;;;;;;;10.13;5.97;;;;;;;;;;4959908;28;20211;-72
2021/09/04 05:47:25;;;;;;;12.20;5.47;;;;;;;;;;4956582;29;20212;-73
2021/09/04 05:50:30;;;;;;;15.97;5.70;;;;;;;;;;4937967;29;20188;-72
2021/09/04 05:53:34;;;;;;;12.23;5.83;;;;;;;;;;4939022;29;20196;-72
2021/09/04 05:56:44;;;;;;;10.03;6.80;;;;;;;;;;4947270;29;20180;-72
2021/09/04 05:59:55;;;;;;;11.90;6.13;;;;;;;;;;4937932;29;20185;-72
2021/09/04 06:03:00;;;;;;;12.40;5.73;;;;;;;;;;4937048;29;20180;-73
2021/09/04 06:06:04;;;;;;;10.27;6.40;;;;;;;;;;4940724;29;20211;-72
2021/09/04 06:09:08;;;;;;;9.07;6.43;;;;;;;;;;4938020;29;20185;-73
2021/09/04 06:12:12;;;;;;;9.67;6.73;;;;;;;;;;4936767;29;20227;-72
2021/09/04 06:15:16;;;;;;;17.13;7.93;;;;;;;;;;4952861;29;20191;-73
2021/09/04 06:18:20;;;;;;;11.83;7.03;;;;;;;;;;4938829;29;20200;-73
2021/09/04 06:21:24;;;;;;;13.03;7.10;;;;;;;;;;4936605;29;20568;-73
2021/09/04 06:24:28;;;;;;;10.83;7.10;;;;;;;;;;4937849;29;20553;-73
2021/09/04 06:27:32;;;;;;;10.30;6.90;;;;;;;;;;4945373;29;20192;-73
2021/09/04 06:30:36;;;;;;;11.53;8.50;;;;;;;;;;4944285;29;20204;-72
2021/09/04 06:33:40;;;;;;;13.20;8.30;;;;;;;;;;4937625;29;20188;-73
2021/09/04 06:36:44;;;;;;;14.37;7.93;;;;;;;;;;4942533;29;20191;-72
2021/09/04 06:39:48;;;;;;;15.17;10.30;;;;;;;;;;4976231;28;20187;-73
2021/09/04 06:42:52;;;;;;;13.53;8.23;;;;;;;;;;4949926;29;20199;-72
2021/09/04 06:45:57;;;;;;;9.87;7.70;;;;;;;;;;4936295;29;20208;-73
2021/09/04 06:49:01;;;;;;;12.70;7.77;;;;;;;;;;4936591;29;20640;-73
2021/09/04 06:52:05;;;;;;;14.63;9.40;;;;;;;;;;4937168;29;20215;-73
2021/09/04 06:55:09;;;;;;;14.90;9.03;;;;;;;;;;4938289;29;20192;-73
2021/09/04 06:58:13;;;;;;;13.90;8.77;;;;;;;;;;4955747;29;20191;-73
2021/09/04 07:01:18;;;;;;;12.23;8.40;;;;;;;;;;4936242;29;20223;-73
2021/09/04 07:04:22;;;;;;;10.80;7.70;;;;;;;;;;4943737;29;20195;-73
2021/09/04 07:07:26;;;;;;;13.57;7.67;;;;;;;;;;4936878;29;20192;-72
2021/09/04 07:10:30;;;;;;;9.13;7.80;;;;;;;;;;4936756;29;20188;-73
2021/09/04 07:13:34;;;;;;;11.27;8.07;;;;;;;;;;4925138;29;20184;-73
2021/09/04 07:16:38;;;;;;;13.07;8.13;;;;;;;;;;4947613;29;20177;-73
2021/09/04 07:19:42;;;;;;;10.60;8.43;;;;;;;;;;4936005;29;20191;-73
2021/09/04 07:22:47;;;;;;;13.60;8.27;;;;;;;;;;4942881;28;20204;-73
2021/09/04 07:25:51;;;;;;;11.57;8.47;;;;;;;;;;4948057;28;20220;-73
2021/09/04 07:28:55;;;;;;;11.03;8.07;;;;;;;;;;4952180;28;20536;-73
2021/09/04 07:32:00;;;;;;;46.77;9.83;;;;;;;;;;4963636;28;20230;-75
2021/09/04 07:35:05;;;;;;;16.57;7.83;;;;;;;;;;4947745;29;20545;-76
2021/09/04 07:38:08;;;;;;;24.10;8.43;;;;;;;;;;4935724;29;20184;-76
2021/09/04 07:41:12;;;;;;;19.07;7.60;;;;;;;;;;4936586;29;20236;-76
2021/09/04 07:44:16;;;;;;;9.27;7.40;;;;;;;;;;4924692;29;20192;-76
2021/09/04 07:47:21;;;;;;;9.97;7.83;;;;;;;;;;4935569;29;20180;-76
2021/09/04 07:50:25;;;;;;;15.33;8.10;;;;;;;;;;4957797;28;20525;-75
2021/09/04 07:53:29;;;;;;;11.07;8.47;;;;;;;;;;4962403;28;20192;-76
2021/09/04 07:56:33;;;;;;;28.07;22.30;;;;;;;;;;4964322;28;20191;-76
2021/09/04 07:59:37;;;;;;;11.07;9.47;;;;;;;;;;4954621;28;20689;-76
2021/09/04 08:02:42;;;;;;;10.80;8.20;;;;;;;;;;4939044;29;20219;-76
2021/09/04 08:05:46;;;;;;;10.40;7.27;;;;;;;;;;4952788;29;20215;-76
2021/09/04 08:08:50;;;;;;;15.63;7.60;;;;;;;;;;4965474;28;20195;-76
2021/09/04 08:11:54;;;;;;;10.83;7.30;;;;;;;;;;4945491;29;20219;-75
2021/09/04 08:14:58;;;;;;;12.57;7.90;;;;;;;;;;4943965;29;20200;-75
2021/09/04 08:18:02;;;;;;;9.07;7.40;;;;;;;;;;4939311;29;20572;-76
2021/09/04 08:21:07;;;;;;;11.03;7.67;;;;;;;;;;4953702;29;20231;-76
2021/09/04 08:24:11;;;;;;;9.70;7.23;;;;;;;;;;4941934;29;20191;-75
2021/09/04 08:27:16;;;;;;;10.63;6.97;;;;;;;;;;4962264;28;20203;-75
2021/09/04 08:30:20;;;;;;;24.67;7.50;;;;;;;;;;4958813;29;20191;-76
2021/09/04 08:33:24;;;;;;;9.63;6.33;;;;;;;;;;4949850;29;20541;-76
2021/09/04 08:36:28;;;;;;;10.53;5.80;;;;;;;;;;4961737;28;20184;-75
2021/09/04 08:39:32;;;;;;;8.67;6.20;;;;;;;;;;4961645;28;20220;-75
2021/09/04 08:42:36;;;;;;;9.73;6.10;;;;;;;;;;4938417;29;20220;-75
2021/09/04 08:45:41;;;;;;;11.57;5.77;;;;;;;;;;4951229;29;20207;-76
2021/09/04 08:48:49;;;;;;;10.83;6.13;;;;;;;;;;4961037;28;20629;-76
2021/09/04 08:51:53;;;;;;;14.03;5.97;;;;;;;;;;4960866;28;20231;-75
2021/09/04 08:54:58;;;;;;;8.63;5.57;;;;;;;;;;4942385;29;20194;-75
2021/09/04 08:58:03;;;;;;;26.63;6.57;;;;;;;;;;4938634;29;20205;-75
2021/09/04 09:01:22;;;;;;;11.67;5.90;;;;;;;;;;4938144;29;20702;-75
2021/09/04 09:04:26;;;;;;;7.37;5.30;;;;;;;;;;4954269;29;20196;-75
2021/09/04 09:07:41;;;;;;;13.47;5.73;;;;;;;;;;4962258;28;20198;-75
2021/09/04 09:10:45;;;;;;;9.50;6.07;;;;;;;;;;4938089;29;20224;-75
2021/09/04 09:13:54;;;;;;;8.48;6.35;;;;;;;;;;4937578;29;20206;-75
2021/09/04 09:17:00;;;;;;;9.77;6.18;;;;;;;;;;4953167;29;20190;-75
2021/09/04 09:20:06;;;;;;;9.60;5.40;;;;;;;;;;4939144;29;20210;-75
2021/09/04 09:23:16;;;;;;;23.15;5.78;;;;;;;;;;4938824;29;20194;-75
2021/09/04 09:26:19;;;;;;;10.77;5.30;;;;;;;;;;4960219;28;20598;-75
2021/09/04 09:29:36;;;;;;;7.20;4.68;;;;;;;;;;4939069;29;20195;-75
2021/09/04 09:32:53;;;;;;;9.20;4.07;;;;;;;;;;4938357;29;20228;-75
2021/09/04 09:35:59;;;;;;;12.27;4.60;;;;;;;;;;4938022;29;20198;-76
2021/09/04 09:39:10;;;;;;;16.20;4.47;;;;;;;;;;4952532;28;20265;-75
2021/09/04 09:42:15;;;;;;;12.68;4.30;;;;;;;;;;4937863;29;20580;-76
2021/09/04 09:45:19;;;;;;;6.68;4.10;;;;;;;;;;4938314;29;20190;-75
2021/09/04 09:48:26;;;;;;;5.97;3.78;;;;;;;;;;4957341;29;20559;-76
2021/09/04 09:51:30;;;;;;;5.07;3.47;;;;;;;;;;4937917;29;20703;-76
2021/09/04 09:54:34;;;;;;;3.92;3.45;;;;;;;;;;4953664;29;20665;-76
2021/09/04 09:57:12;;;;;;;4.38;3.70;;;;;;;;;;5131479;27;20826;-74
2021/09/04 10:00:18;;;;;;;5.57;3.20;;;;;;;;;;5117731;28;20209;-74
2021/09/04 10:03:25;;;;;;;3.42;3.10;;;;;;;;;;5079360;28;20199;-74
2021/09/04 10:06:29;;;;;;;9.13;4.30;;;;;;;;;;5087389;28;20195;-74
2021/09/04 10:09:33;;;;;;;5.53;3.58;;;;;;;;;;5077593;28;20194;-75
2021/09/04 10:12:37;;;;;;;3.92;3.40;;;;;;;;;;5090352;28;20589;-74
2021/09/04 10:15:51;;;;;;;3.75;3.38;;;;;;;;;;5090004;28;20214;-74
2021/09/04 10:18:56;;;;;;;4.53;3.30;;;;;;;;;;5090266;28;20191;-74
2021/09/04 10:22:10;;;;;;;39.00;5.32;;;;;;;;;;5066608;28;20207;-75
2021/09/04 10:25:16;;;;;;;3.38;2.88;;;;;;;;;;5097606;28;20202;-75
2021/09/04 10:28:21;;;;;;;12.32;3.33;;;;;;;;;;5090853;28;20183;-74
2021/09/04 10:31:59;;;;;;;4.22;3.72;;;;;;;;;;5090350;28;20222;-74
2021/09/04 10:35:06;;;;;;;4.63;3.28;;;;;;;;;;5067841;28;20195;-75
2021/09/04 10:38:19;;;;;;;3.30;3.00;;;;;;;;;;5090822;28;20203;-75
2021/09/04 10:41:23;;;;;;;4.45;3.60;;;;;;;;;;5077893;28;20215;-75
2021/09/04 10:44:28;;;;;;;3.92;3.53;;;;;;;;;;5089778;28;20188;-75
2021/09/04 10:48:14;;;;;;;3.72;3.28;;;;;;;;;;5089862;28;20195;-75
2021/09/04 10:51:18;;;;;;;4.43;3.72;;;;;;;;;;5007994;28;20222;-75
2021/09/04 10:54:54;;;;;;;4.80;3.88;;;;;;;;;;5007761;28;20195;-76
2021/09/04 10:58:14;;;;;;;4.57;3.45;;;;;;;;;;5083922;28;20195;-74
2021/09/04 11:01:32;;;;;;;7.82;3.60;;;;;;;;;;5073732;28;20223;-74
2021/09/04 11:04:36;;;;;;;4.65;3.55;;;;;;;;;;5073585;28;20180;-74
2021/09/04 11:07:45;;;;;;;6.68;3.78;;;;;;;;;;5064064;28;20187;-74
2021/09/04 11:11:06;;;;;;;3.95;3.55;;;;;;;;;;5072069;28;20224;-74
2021/09/04 11:14:18;;;;;;;6.07;3.80;;;;;;;;;;5072603;28;20188;-74
2021/09/04 11:17:23;;;;;;;6.05;3.17;;;;;;;;;;5072315;28;20203;-74
2021/09/04 11:20:27;;;;;;;6.60;3.67;;;;;;;;;;5072488;28;20191;-74
2021/09/04 11:23:32;;;;;;;5.15;3.80;;;;;;;;;;5072437;28;20219;-74
2021/09/04 11:26:50;;;;;;;13.02;4.22;;;;;;;;;;5048386;28;20169;-74
2021/09/04 11:29:56;;;;;;;34.50;5.88;;;;;;;;;;5079218;28;20195;-74
2021/09/04 11:33:14;;;;;;;5.55;3.70;;;;;;;;;;5070705;28;20196;-74
2021/09/04 11:36:32;;;;;;;5.68;3.72;;;;;;;;;;5059602;28;20215;-75
2021/09/04 11:39:37;;;;;;;18.05;3.70;;;;;;;;;;5059968;28;20546;-75
2021/09/04 11:42:46;;;;;;;8.35;3.30;;;;;;;;;;5069359;28;20223;-75
2021/09/04 11:46:05;;;;;;;4.18;3.78;;;;;;;;;;5051794;28;20183;-75
2021/09/04 11:49:10;;;;;;;4.45;3.30;;;;;;;;;;5071773;28;20298;-75
2021/09/04 11:52:35;;;;;;;4.18;3.50;;;;;;;;;;5071247;28;20224;-75
2021/09/04 11:55:40;;;;;;;4.45;3.40;;;;;;;;;;5069046;28;20212;-75
2021/09/04 11:58:45;;;;;;;31.45;4.30;;;;;;;;;;5070618;28;20223;-77
2021/09/04 12:01:49;;;;;;;10.65;3.53;;;;;;;;;;5057867;28;20226;-78
2021/09/04 12:04:54;;;;;;;7.07;3.72;;;;;;;;;;5070618;28;20188;-75
2021/09/04 12:08:06;;;;;;;5.40;3.22;;;;;;;;;;5071556;28;20184;-77
2021/09/04 12:11:10;;;;;;;13.05;3.65;;;;;;;;;;5071648;28;20713;-77
2021/09/04 12:14:14;;;;;;;3.53;3.22;;;;;;;;;;5072576;28;20179;-77
2021/09/04 12:17:18;;;;;;;30.38;4.93;;;;;;;;;;5059346;28;20551;-77
2021/09/04 12:20:29;;;;;;;5.82;3.10;;;;;;;;;;5059087;28;20203;-78
2021/09/04 12:23:44;;;;;;;4.57;3.17;;;;;;;;;;5072464;28;20851;-78
2021/09/04 12:26:49;;;;;;;4.70;2.90;;;;;;;;;;5060706;28;20180;-78
2021/09/04 12:30:00;;;;;;;6.38;3.20;;;;;;;;;;5083900;28;20666;-77
2021/09/04 12:33:07;;;;;;;5.40;3.03;;;;;;;;;;5042440;28;20181;-77
2021/09/04 12:36:11;;;;;;;4.63;3.38;;;;;;;;;;5066775;28;20623;-77
2021/09/04 12:39:20;;;;;;;6.30;3.88;;;;;;;;;;5074461;28;20199;-77
2021/09/04 12:42:24;;;;;;;7.22;3.45;;;;;;;;;;5062196;28;20220;-76
2021/09/04 12:45:28;;;;;;;6.55;3.63;;;;;;;;;;5073098;28;20199;-76
2021/09/04 12:48:37;;;;;;;13.98;4.00;;;;;;;;;;5061827;28;20184;-76
2021/09/04 12:51:41;;;;;;;8.48;3.83;;;;;;;;;;5074057;28;20702;-77
2021/09/04 12:54:48;;;;;;;39.38;6.80;;;;;;;;;;5074240;28;20194;-77
2021/09/04 12:58:04;;;;;;;7.53;3.90;;;;;;;;;;5061914;28;20665;-77
2021/09/04 13:01:09;;;;;;;5.10;3.53;;;;;;;;;;5074215;28;20225;-77
2021/09/04 13:04:13;;;;;;;18.13;4.70;;;;;;;;;;5074250;28;20190;-76
2021/09/04 13:07:17;;;;;;;5.10;4.00;;;;;;;;;;5074322;28;20174;-77
2021/09/04 13:10:22;;;;;;;4.30;3.63;;;;;;;;;;5073987;28;20189;-77
2021/09/04 13:13:28;;;;;;;5.75;3.58;;;;;;;;;;5074093;28;20192;-76
2021/09/04 13:16:32;;;;;;;6.18;3.38;;;;;;;;;;5073630;28;20203;-77
2021/09/04 13:19:36;;;;;;;10.25;3.90;;;;;;;;;;5061547;28;20187;-77
2021/09/04 13:22:43;;;;;;;7.38;3.92;;;;;;;;;;5061324;28;20211;-77
2021/09/04 13:25:47;;;;;;;4.18;3.78;;;;;;;;;;5073778;28;20196;-77
2021/09/04 13:28:51;;;;;;;4.28;3.35;;;;;;;;;;5073980;28;20183;-77
2021/09/04 13:31:56;;;;;;;5.18;3.58;;;;;;;;;;5073297;28;20549;-77
2021/09/04 13:35:00;;;;;;;8.68;3.72;;;;;;;;;;5073869;28;20631;-77
2021/09/04 13:38:04;;;;;;;4.93;3.50;;;;;;;;;;5073546;28;20210;-77
2021/09/04 13:41:08;;;;;;;4.05;3.40;;;;;;;;;;5073816;28;20724;-77
2021/09/04 13:44:13;;;;;;;6.57;4.53;;;;;;;;;;5061445;28;20178;-78
2021/09/04 13:47:17;;;;;;;6.22;4.50;;;;;;;;;;5073781;28;20184;-77
2021/09/04 13:50:21;;;;;;;5.55;4.30;;;;;;;;;;5073285;28;20185;-77
2021/09/04 13:53:25;;;;;;;6.07;3.80;;;;;;;;;;5073678;28;20184;-77
2021/09/04 13:56:29;;;;;;;7.03;3.50;;;;;;;;;;5073078;28;20219;-77
2021/09/04 13:59:33;;;;;;;6.72;3.45;;;;;;;;;;5061035;28;20189;-77
2021/09/04 14:02:38;;;;;;;6.68;3.88;;;;;;;;;;5073176;28;20221;-77
2021/09/04 14:05:42;;;;;;;5.43;3.83;;;;;;;;;;5084015;28;20185;-77
2021/09/04 14:08:46;;;;;;;5.70;3.75;;;;;;;;;;5073179;28;20179;-77
2021/09/04 14:11:51;;;;;;;3.90;3.10;;;;;;;;;;5073096;28;20213;-77
2021/09/04 14:14:55;;;;;;;10.82;4.20;;;;;;;;;;5073657;28;20177;-77
2021/09/04 14:17:59;;;;;;;4.65;3.70;;;;;;;;;;5072806;28;20668;-77
2021/09/04 14:21:03;;;;;;;6.60;3.80;;;;;;;;;;5073226;28;20226;-77
2021/09/04 14:24:07;;;;;;;6.45;3.60;;;;;;;;;;5073058;28;20530;-77
2021/09/04 14:27:11;;;;;;;5.65;3.50;;;;;;;;;;5073003;28;20176;-77
2021/09/04 14:30:15;;;;;;;5.55;3.83;;;;;;;;;;5073039;28;20183;-77
2021/09/04 14:33:19;;;;;;;4.50;3.55;;;;;;;;;;5060611;28;20201;-76
2021/09/04 14:36:23;;;;;;;3.90;3.50;;;;;;;;;;5060801;28;20191;-77
2021/09/04 14:39:27;;;;;;;6.13;3.83;;;;;;;;;;5083707;28;20186;-77
2021/09/04 14:42:31;;;;;;;5.03;3.90;;;;;;;;;;5074340;28;20211;-76
2021/09/04 14:45:36;;;;;;;6.10;4.28;;;;;;;;;;5076847;28;20201;-77
2021/09/04 14:48:39;;;;;;;5.80;4.28;;;;;;;;;;5076636;28;20183;-77
2021/09/04 14:51:44;;;;;;;8.30;7.35;;;;;;;;;;5064328;28;20569;-77
2021/09/04 14:54:48;;;;;;;6.55;4.80;;;;;;;;;;5076405;28;20175;-77
2021/09/04 14:57:52;;;;;;;5.75;3.60;;;;;;;;;;5062713;28;20204;-77
2021/09/04 15:00:56;;;;;;;4.43;3.75;;;;;;;;;;5063399;28;20216;-77
2021/09/04 15:04:03;;;;;;;18.02;4.50;;;;;;;;;;5046265;28;20178;-77
2021/09/04 15:07:09;;;;;;;50.97;5.78;;;;;;;;;;5068016;28;20640;-77
2021/09/04 15:10:13;;;;;;;4.32;3.70;;;;;;;;;;5060814;28;20212;-77
2021/09/04 15:13:17;;;;;;;5.45;4.63;;;;;;;;;;5060443;28;20196;-77
2021/09/04 15:16:23;;;;;;;5.88;4.63;;;;;;;;;;5067853;28;20202;-77
2021/09/04 15:19:27;;;;;;;8.68;4.60;;;;;;;;;;5048908;28;20558;-77
2021/09/04 15:22:31;;;;;;;8.20;4.25;;;;;;;;;;5048819;28;20566;-77
2021/09/04 15:25:35;;;;;;;5.57;3.85;;;;;;;;;;5060208;28;20790;-77
2021/09/04 15:28:41;;;;;;;4.65;3.92;;;;;;;;;;5072165;28;20176;-77
2021/09/04 15:31:45;;;;;;;5.38;3.78;;;;;;;;;;5059845;28;20221;-77
2021/09/04 15:34:49;;;;;;;6.55;3.60;;;;;;;;;;5060278;28;20192;-76
2021/09/04 15:37:53;;;;;;;5.05;3.80;;;;;;;;;;5060064;28;20211;-77
2021/09/04 15:40:57;;;;;;;8.18;3.95;;;;;;;;;;5063517;28;20699;-77
2021/09/04 15:44:02;;;;;;;6.78;3.78;;;;;;;;;;5072004;28;20210;-77
2021/09/04 15:47:06;;;;;;;5.97;3.42;;;;;;;;;;5071833;28;20554;-76
2021/09/04 15:50:11;;;;;;;4.93;3.53;;;;;;;;;;5072218;28;20205;-77
2021/09/04 15:53:15;;;;;;;11.17;3.53;;;;;;;;;;5072001;28;20207;-77
2021/09/04 15:56:19;;;;;;;3.83;3.37;;;;;;;;;;5071462;28;20214;-76
2021/09/04 15:59:24;;;;;;;5.20;3.60;;;;;;;;;;5071941;28;20192;-77
2021/09/04 16:02:28;;;;;;;4.37;3.07;;;;;;;;;;5071901;28;20220;-77
2021/09/04 16:05:31;;;;;;;3.90;3.50;;;;;;;;;;5071402;28;20195;-76
2021/09/04 16:08:36;;;;;;;5.37;4.50;;;;;;;;;;5071672;28;20524;-76
2021/09/04 16:11:40;;;;;;;5.33;4.13;;;;;;;;;;5071536;28;20212;-76
2021/09/04 16:14:44;;;;;;;9.53;4.10;;;;;;;;;;5073552;28;20644;-76
2021/09/04 16:17:48;;;;;;;9.93;4.07;;;;;;;;;;5073899;28;20205;-76
2021/09/04 16:20:52;;;;;;;5.57;3.57;;;;;;;;;;5084634;28;20208;-76
2021/09/04 16:23:56;;;;;;;7.50;3.53;;;;;;;;;;5062412;28;20179;-76
2021/09/04 16:27:01;;;;;;;10.53;3.77;;;;;;;;;;5062616;28;20176;-76
2021/09/04 16:30:06;;;;;;;7.40;4.30;;;;;;;;;;5074739;28;20181;-76
2021/09/04 16:33:11;;;;;;;7.17;3.80;;;;;;;;;;5074568;28;20184;-76
2021/09/04 16:36:15;;;;;;;6.20;4.37;;;;;;;;;;5062534;28;20180;-76
2021/09/04 16:39:19;;;;;;;4.87;4.33;;;;;;;;;;5074453;28;20176;-76
2021/09/04 16:42:24;;;;;;;4.33;3.70;;;;;;;;;;5062379;28;20539;-76
2021/09/04 16:45:28;;;;;;;9.30;4.20;;;;;;;;;;5074650;28;20627;-76
2021/09/04 16:48:31;;;;;;;7.33;3.90;;;;;;;;;;5074299;28;20168;-75
2021/09/04 16:51:36;;;;;;;8.13;4.57;;;;;;;;;;5074106;28;20219;-76
2021/09/04 16:54:40;;;;;;;5.03;4.53;;;;;;;;;;5061920;28;20180;-76
2021/09/04 16:57:44;;;;;;;6.80;4.07;;;;;;;;;;5073913;28;20215;-76
2021/09/04 17:00:48;;;;;;;11.20;4.53;;;;;;;;;;5073927;28;20689;-75
2021/09/04 17:03:52;;;;;;;5.57;4.37;;;;;;;;;;5074307;28;20179;-76
2021/09/04 17:06:57;;;;;;;8.00;4.43;;;;;;;;;;5074059;28;20180;-76
2021/09/04 17:10:02;;;;;;;6.83;3.93;;;;;;;;;;5074103;28;20618;-76
2021/09/04 17:13:08;;;;;;;5.10;4.50;;;;;;;;;;5074162;28;20183;-75
2021/09/04 17:16:12;;;;;;;7.70;4.70;;;;;;;;;;5073995;28;20183;-76
2021/09/04 17:19:16;;;;;;;6.63;3.53;;;;;;;;;;5073754;28;20199;-76
2021/09/04 17:22:22;;;;;;;10.07;4.50;;;;;;;;;;5073580;28;20218;-76
2021/09/04 17:25:26;;;;;;;8.47;4.40;;;;;;;;;;5061625;28;20179;-76
2021/09/04 17:28:31;;;;;;;5.03;4.00;;;;;;;;;;5073920;28;20176;-76
2021/09/04 17:31:35;;;;;;;7.07;4.10;;;;;;;;;;5061662;28;20215;-76
2021/09/04 17:34:39;;;;;;;17.83;5.30;;;;;;;;;;5061569;28;20179;-76
2021/09/04 17:37:43;;;;;;;6.77;3.97;;;;;;;;;;5073644;28;20207;-76
2021/09/04 17:40:47;;;;;;;4.20;3.50;;;;;;;;;;5061195;28;20681;-76
2021/09/04 17:43:52;;;;;;;8.00;3.70;;;;;;;;;;5073489;28;20191;-76
2021/09/04 17:46:56;;;;;;;6.33;3.80;;;;;;;;;;5073701;28;20522;-76
2021/09/04 17:50:01;;;;;;;14.70;4.17;;;;;;;;;;5073671;28;20176;-76
2021/09/04 17:53:07;;;;;;;16.43;4.40;;;;;;;;;;5073589;28;20184;-76
2021/09/04 17:56:11;;;;;;;17.47;4.80;;;;;;;;;;5049640;28;20203;-75
2021/09/04 17:59:15;;;;;;;16.67;4.43;;;;;;;;;;5072941;28;20199;-75
2021/09/04 18:02:21;;;;;;;6.60;4.33;;;;;;;;;;5073156;28;20223;-76
2021/09/04 18:05:26;;;;;;;7.93;4.50;;;;;;;;;;5073205;28;20199;-76
2021/09/04 18:08:30;;;;;;;7.97;4.40;;;;;;;;;;5073489;28;20176;-76
2021/09/04 18:11:34;;;;;;;6.17;4.20;;;;;;;;;;5061085;28;20210;-76
2021/09/04 18:14:37;;;;;;;7.90;4.00;;;;;;;;;;5073410;28;20180;-76
2021/09/04 18:17:41;;;;;;;6.73;4.13;;;;;;;;;;5062535;28;20199;-76
2021/09/04 18:20:45;;;;;;;5.03;4.10;;;;;;;;;;5077064;28;20219;-76
2021/09/04 18:23:49;;;;;;;8.03;4.40;;;;;;;;;;5077332;28;20187;-76
2021/09/04 18:26:53;;;;;;;8.33;4.43;;;;;;;;;;5077179;28;20179;-76
2021/09/04 18:29:57;;;;;;;6.67;3.63;;;;;;;;;;5053492;28;20167;-76